Thursday, March 30, 2017, 2:23 PM EDT

KW99, Petersburg, Grant County Airport

Location: Petersburg, WV, United States Lat: 38.983
Local Time: 2:23 PM EDT (18:23 GMT) Lon: -79.133
Time Zone: US/Eastern Elev: 961 ft

Show me the last for .
Show Decoded

2017-03-30 13:55 METAR KW99 301755Z AUTO 13007KT 10SM OVC038 14/05 A3004 RMK AO2 LTG DSNT NW
                 T01370051 10140 20071 =
2017-03-30 13:35 METAR KW99 301735Z AUTO 17010KT 10SM OVC038 14/05 A3005 RMK AO2 T01400051 =
2017-03-30 13:15 METAR KW99 301715Z AUTO 15009KT 10SM OVC038 14/05 A3007 RMK AO2 T01350047 =
2017-03-30 12:55 METAR KW99 301655Z AUTO 15008KT 10SM OVC038 13/05 A3008 RMK AO2 LTG DSNT NW
                 T01320046 =
2017-03-30 12:35 METAR KW99 301635Z AUTO 00000KT 10SM OVC038 12/03 A3010 RMK AO2 T01220031 =
2017-03-30 12:15 METAR KW99 301615Z AUTO 00000KT 10SM OVC040 11/03 A3011 RMK AO2 LTG DSNT NW
                 T01140031 =
2017-03-30 11:55 METAR KW99 301555Z AUTO 00000KT 10SM OVC040 10/03 A3012 RMK AO2 LTG DSNT W
                 T01040030 =
2017-03-30 11:35 METAR KW99 301535Z AUTO 00000KT 10SM OVC040 10/02 A3013 RMK AO2 T01000022 =
2017-03-30 11:15 METAR KW99 301515Z AUTO 00000KT 10SM OVC040 10/02 A3014 RMK AO2 LTG DSNT W
                 T00950021 =
2017-03-30 10:55 METAR KW99 301455Z AUTO 00000KT 10SM OVC040 09/02 A3014 RMK AO2 LTG DSNT W
                 T00900021 =
2017-03-30 10:35 METAR KW99 301435Z AUTO 00000KT 10SM OVC040 09/02 A3016 RMK AO2 LTG DSNT NW
                 T00870020 =
2017-03-30 10:15 METAR KW99 301415Z AUTO 00000KT 10SM OVC042 09/02 A3016 RMK AO2 T00860023 =
2017-03-30 09:55 METAR KW99 301355Z AUTO 00000KT 10SM OVC042 08/02 A3016 RMK AO2 T00810017 =
2017-03-30 09:35 METAR KW99 301335Z AUTO 36003KT 10SM OVC044 08/01 A3016 RMK AO2 LTG DSNT W
                 T00780011 =
2017-03-30 09:15 METAR KW99 301315Z AUTO 34003KT 10SM OVC044 08/01 A3016 RMK AO2 LTG DSNT W
                 T00760011 =
2017-03-30 08:55 METAR KW99 301255Z AUTO 34003KT 10SM OVC046 08/01 A3017 RMK AO2 T00750012 =
2017-03-30 08:35 METAR KW99 301235Z AUTO 00000KT 10SM OVC046 08/02 A3018 RMK AO2 T00750016 =
2017-03-30 08:15 METAR KW99 301215Z AUTO 00000KT 10SM OVC046 07/02 A3017 RMK AO2 T00730023 =
2017-03-30 07:55 METAR KW99 301155Z AUTO 00000KT 10SM OVC048 07/03 A3017 RMK AO2 T00710027 10071
                 20036 =
2017-03-30 07:35 METAR KW99 301135Z AUTO 27003KT 10SM OVC050 07/03 A3018 RMK AO2 T00660034 =
2017-03-30 07:15 METAR KW99 301115Z AUTO 29004KT 10SM OVC050 06/03 A3018 RMK AO2 T00630033 =
2017-03-30 06:55 METAR KW99 301055Z AUTO 28003KT 10SM OVC050 06/04 A3017 RMK AO2 T00610036 =
2017-03-30 06:35 METAR KW99 301035Z AUTO 00000KT 10SM BKN050 05/04 A3017 RMK AO2 T00530040 =
2017-03-30 06:10 METAR KW99 301010Z AUTO 29003KT 10SM BKN050 05/04 A3017 RMK AO2 T00540039 =
2017-03-30 05:55 METAR KW99 300955Z AUTO 28003KT 10SM OVC050 05/04 A3016 RMK AO2 T00520040 =
2017-03-30 05:35 METAR KW99 300935Z AUTO 26004KT 10SM BKN055 05/04 A3016 RMK AO2 T00540041 =
2017-03-30 05:15 METAR KW99 300915Z AUTO 00000KT 10SM BKN055 05/04 A3016 RMK AO2 T00470035 =
2017-03-30 04:55 METAR KW99 300855Z AUTO 00000KT 10SM OVC055 05/04 A3016 RMK AO2 T00530039 =
2017-03-30 04:35 METAR KW99 300835Z AUTO 00000KT 10SM OVC055 05/04 A3015 RMK AO2 T00530040 =
2017-03-30 04:15 METAR KW99 300815Z AUTO 00000KT 10SM BKN055 05/04 A3015 RMK AO2 T00480035 =
2017-03-30 03:55 METAR KW99 300755Z AUTO 29003KT 10SM CLR 04/03 A3015 RMK AO2 T00370025 =
2017-03-30 03:35 METAR KW99 300735Z AUTO 00000KT 10SM CLR 04/03 A3015 RMK AO2 T00440031 =
2017-03-30 03:15 METAR KW99 300715Z AUTO 00000KT 10SM CLR 04/03 A3014 RMK AO2 T00410030 =
2017-03-30 02:55 METAR KW99 300655Z AUTO 00000KT 10SM CLR 05/04 A3014 RMK AO2 T00530040 =
2017-03-30 02:35 METAR KW99 300635Z AUTO 00000KT 10SM CLR 05/03 A3015 RMK AO2 T00510034 =
2017-03-30 02:15 METAR KW99 300615Z AUTO 00000KT 10SM CLR 06/04 A3016 RMK AO2 T00550039 =
2017-03-30 01:55 METAR KW99 300555Z AUTO 28003KT 10SM CLR 05/03 A3016 RMK AO2 T00510032 10147
                 20051 401960051 =
2017-03-30 01:35 METAR KW99 300535Z AUTO 00000KT 10SM CLR 06/04 A3017 RMK AO2 T00630039 =
2017-03-30 01:15 METAR KW99 300515Z AUTO 00000KT 10SM CLR 07/04 A3017 RMK AO2 T00650043 =
2017-03-30 00:55 METAR KW99 300455Z AUTO 00000KT 10SM CLR 07/04 A3016 RMK AO2 T00650041 =
2017-03-30 00:35 METAR KW99 300435Z AUTO 00000KT 10SM CLR 08/04 A3016 RMK AO2 T00770042 =
2017-03-30 00:15 METAR KW99 300415Z AUTO 00000KT 10SM CLR 08/04 A3016 RMK AO2 T00780040 =
2017-03-29 23:55 METAR KW99 300355Z AUTO 29004KT 10SM CLR 08/04 A3016 RMK AO2 T00770041 =
2017-03-29 23:35 METAR KW99 300335Z AUTO 00000KT 10SM CLR 07/04 A3017 RMK AO2 T00710042 =
2017-03-29 23:15 METAR KW99 300315Z AUTO 00000KT 10SM CLR 08/05 A3017 RMK AO2 T00830047 =
2017-03-29 22:55 METAR KW99 300255Z AUTO 29006KT 10SM CLR 08/04 A3017 RMK AO2 T00800041 =
2017-03-29 22:35 METAR KW99 300235Z AUTO 28008KT 10SM CLR 08/05 A3017 RMK AO2 T00760046 =
2017-03-29 22:15 METAR KW99 300215Z AUTO 28004KT 10SM CLR 08/05 A3017 RMK AO2 T00820048 =
2017-03-29 21:55 METAR KW99 300155Z AUTO 00000KT 10SM CLR 10/05 A3017 RMK AO2 T00980048 =
2017-03-29 21:35 METAR KW99 300135Z AUTO 28003KT 10SM CLR 10/05 A3017 RMK AO2 T01020048 =
2017-03-29 21:15 METAR KW99 300115Z AUTO 00000KT 10SM CLR 09/06 A3017 RMK AO2 T00940056 =
2017-03-29 20:55 METAR KW99 300055Z AUTO 29005KT 10SM CLR 11/06 A3016 RMK AO2 T01120061 =
2017-03-29 20:35 METAR KW99 300035Z AUTO 28005KT 10SM CLR 12/07 A3014 RMK AO2 T01180067 =
2017-03-29 20:15 METAR KW99 300015Z AUTO 00000KT 10SM CLR 14/06 A3013 RMK AO2 T01440059 =
2017-03-29 19:55 METAR KW99 292355Z AUTO 27003KT 3SM HZ CLR 15/05 A3013 RMK AO2 T01520054 10196
                 20152 =
2017-03-29 19:35 METAR KW99 292335Z AUTO 07004KT 7SM CLR 18/03 A3012 RMK AO2 T01780031 =
2017-03-29 19:15 METAR KW99 292315Z AUTO 00000KT 10SM CLR 18/04 A3011 RMK AO2 T01750040 =
2017-03-29 18:55 METAR KW99 292255Z AUTO 11005KT 10SM CLR 18/05 A3010 RMK AO2 T01800046 =
2017-03-29 18:35 METAR KW99 292235Z AUTO 11003KT 10SM CLR 19/05 A3010 RMK AO2 T01880051 =
2017-03-29 18:15 METAR KW99 292215Z AUTO 00000KT 10SM CLR 19/04 A3010 RMK AO2 T01900041 =
2017-03-29 17:55 METAR KW99 292155Z AUTO 10005KT 10SM CLR 19/05 A3010 RMK AO2 T01900049 =
2017-03-29 17:35 METAR KW99 292135Z AUTO 10004KT 10SM CLR 20/05 A3009 RMK AO2 T01950045 =
2017-03-29 17:15 METAR KW99 292115Z AUTO 00000KT 10SM CLR 19/05 A3010 RMK AO2 T01900045 =
2017-03-29 16:55 METAR KW99 292055Z AUTO 13004KT 10SM CLR 19/05 A3010 RMK AO2 T01900054 =
2017-03-29 16:35 METAR KW99 292035Z AUTO 02004KT 10SM CLR 19/05 A3010 RMK AO2 T01900049 =
2017-03-29 16:15 METAR KW99 292015Z AUTO 00000KT 10SM CLR 19/05 A3010 RMK AO2 T01890052 =
2017-03-29 15:55 METAR KW99 291955Z AUTO 09006KT 10SM CLR 19/06 A3010 RMK AO2 T01860060 =
2017-03-29 15:35 METAR KW99 291935Z AUTO 00000KT 10SM CLR 18/06 A3009 RMK AO2 T01810059 =
2017-03-29 15:15 METAR KW99 291915Z AUTO 00000KT 10SM CLR 18/06 A3010 RMK AO2 T01790060 =
2017-03-29 14:55 METAR KW99 291855Z AUTO 00000KT 10SM CLR 18/06 A3011 RMK AO2 T01760061 =
2017-03-29 14:35 METAR KW99 291835Z AUTO 09005KT 10SM CLR 18/06 A3012 RMK AO2 T01750064 =

Support USWX by starting your Amazon purchase here.